createdAt,value
2023-04-02T00:00:50.720Z,219.26
2023-04-02T00:01:50.756Z,219.66
2023-04-02T00:02:50.825Z,216.29
2023-04-02T00:03:50.754Z,214.87
2023-04-02T00:04:50.695Z,219.06
2023-04-02T00:05:51.042Z,222.49
2023-04-02T00:06:50.680Z,221.71
2023-04-02T00:07:50.687Z,220.92
2023-04-02T00:08:50.689Z,220.05
2023-04-02T00:09:50.670Z,218.63
2023-04-02T00:10:50.666Z,219.36
2023-04-02T00:11:50.663Z,221.11
2023-04-02T00:12:50.653Z,219.71
2023-04-02T00:13:50.634Z,221.43
2023-04-02T00:14:50.641Z,227.97
2023-04-02T00:15:50.633Z,233.24
2023-04-02T00:16:50.652Z,239.44
2023-04-02T00:17:50.649Z,243.27
2023-04-02T00:18:50.608Z,244.04
2023-04-02T00:19:50.592Z,241.33
2023-04-02T00:20:50.602Z,240.38
2023-04-02T00:21:50.604Z,236.84
2023-04-02T00:22:50.581Z,231.03
2023-04-02T00:23:50.593Z,229.30
2023-04-02T00:24:50.588Z,228.29
2023-04-02T00:25:50.557Z,224.43
2023-04-02T00:26:50.580Z,226.02
2023-04-02T00:27:50.547Z,230.43
2023-04-02T00:28:50.538Z,232.49
2023-04-02T00:29:50.545Z,230.91
2023-04-02T00:30:50.573Z,228.14
2023-04-02T00:31:50.615Z,226.41
2023-04-02T00:32:50.668Z,227.82
2023-04-02T00:33:50.637Z,228.82
2023-04-02T00:34:50.655Z,227.84
2023-04-02T00:35:50.748Z,230.23
2023-04-02T00:36:50.671Z,235.98
2023-04-02T00:37:50.690Z,241.77
2023-04-02T00:38:50.715Z,245.10
2023-04-02T00:39:50.716Z,247.85
2023-04-02T00:40:50.718Z,249.37
2023-04-02T00:41:50.736Z,249.95
2023-04-02T00:42:50.733Z,249.92
2023-04-02T00:43:50.832Z,250.17
2023-04-02T00:44:50.815Z,249.34
2023-04-02T00:45:50.864Z,249.57
2023-04-02T00:46:50.850Z,250.00
2023-04-02T00:47:50.940Z,248.91
2023-04-02T00:48:50.892Z,247.07
2023-04-02T00:49:50.929Z,245.43
2023-04-02T00:50:50.977Z,248.12
2023-04-02T00:51:51.021Z,250.36
2023-04-02T00:52:51.071Z,249.87
2023-04-02T00:53:51.143Z,242.00
2023-04-02T00:54:51.183Z,235.18
2023-04-02T00:55:51.230Z,230.58
2023-04-02T00:56:51.279Z,225.83
2023-04-02T00:57:51.344Z,218.59
2023-04-02T00:58:51.366Z,208.20
2023-04-02T00:59:51.414Z,206.57
2023-04-02T01:00:51.471Z,202.27
2023-04-02T01:01:51.601Z,199.76
2023-04-02T01:02:51.626Z,196.21
2023-04-02T01:03:51.610Z,196.39
2023-04-02T01:04:51.599Z,195.51
2023-04-02T01:05:51.637Z,198.00
2023-04-02T01:06:51.673Z,199.27
2023-04-02T01:07:51.712Z,204.79
2023-04-02T01:08:51.736Z,210.38
2023-04-02T01:09:51.789Z,216.19
2023-04-02T01:10:51.804Z,222.82
2023-04-02T01:11:51.836Z,230.83
2023-04-02T01:12:51.864Z,237.00
2023-04-02T01:13:51.915Z,239.71
2023-04-02T01:14:51.939Z,240.45
2023-04-02T01:15:51.998Z,243.17
2023-04-02T01:16:52.014Z,246.74
2023-04-02T01:17:52.110Z,250.00
2023-04-02T01:18:52.091Z,250.59
2023-04-02T01:19:52.132Z,250.00
2023-04-02T01:20:52.177Z,250.00
2023-04-02T01:21:52.226Z,249.39
2023-04-02T01:22:52.317Z,245.87
2023-04-02T01:23:52.309Z,247.28
2023-04-02T01:24:52.354Z,245.66
2023-04-02T01:25:52.443Z,246.41
2023-04-02T01:26:52.474Z,243.15
2023-04-02T01:27:52.501Z,244.92
2023-04-02T01:28:52.531Z,249.92
2023-04-02T01:29:52.594Z,248.29
2023-04-02T01:30:52.629Z,245.53
2023-04-02T01:31:52.670Z,240.36
2023-04-02T01:32:52.702Z,239.17
2023-04-02T01:33:52.764Z,239.46
2023-04-02T01:34:52.768Z,240.00
2023-04-02T01:35:52.833Z,236.47
2023-04-02T01:36:52.837Z,234.09
2023-04-02T01:37:52.902Z,234.17
2023-04-02T01:38:52.919Z,235.13
2023-04-02T01:39:52.947Z,233.57
2023-04-02T01:40:53.012Z,232.06
2023-04-02T01:41:53.061Z,231.61
2023-04-02T01:42:53.123Z,227.84
2023-04-02T01:43:53.150Z,219.68
2023-04-02T01:44:53.206Z,215.55
2023-04-02T01:45:53.245Z,212.74
2023-04-02T01:46:53.329Z,216.10
2023-04-02T01:47:53.476Z,217.95
2023-04-02T01:48:53.401Z,219.53
2023-04-02T01:49:53.441Z,221.19
2023-04-02T01:50:53.479Z,218.89
2023-04-02T01:51:53.515Z,216.43
2023-04-02T01:52:53.538Z,215.70
2023-04-02T01:53:53.577Z,213.92
2023-04-02T01:54:53.588Z,210.60
2023-04-02T01:55:53.652Z,209.14
2023-04-02T01:56:53.699Z,208.61
2023-04-02T01:57:53.715Z,203.67
2023-04-02T01:58:53.730Z,199.09
2023-04-02T01:59:53.781Z,193.99
2023-04-02T02:00:53.885Z,191.44
2023-04-02T02:01:53.869Z,189.13
2023-04-02T02:02:53.936Z,186.88
2023-04-02T02:03:53.921Z,187.38
2023-04-02T02:04:54.252Z,187.14
2023-04-02T02:05:54.017Z,187.11
2023-04-02T02:06:54.088Z,186.54
2023-04-02T02:07:54.138Z,187.55
2023-04-02T02:08:54.198Z,188.70
2023-04-02T02:09:54.265Z,186.75
2023-04-02T02:10:54.298Z,182.55
2023-04-02T02:11:54.349Z,181.73
2023-04-02T02:12:54.445Z,181.20
2023-04-02T02:13:54.477Z,180.92
2023-04-02T02:14:54.513Z,178.78
2023-04-02T02:15:54.595Z,175.57
2023-04-02T02:16:54.658Z,176.39
2023-04-02T02:17:54.742Z,178.29
2023-04-02T02:18:54.770Z,177.06
2023-04-02T02:19:54.814Z,177.52
2023-04-02T02:20:54.896Z,177.46
2023-04-02T02:21:54.943Z,177.46
2023-04-02T02:22:54.995Z,180.83
2023-04-02T02:23:55.055Z,185.06
2023-04-02T02:24:55.131Z,186.33
2023-04-02T02:25:55.144Z,190.32
2023-04-02T02:26:55.219Z,197.24
2023-04-02T02:27:55.276Z,205.61
2023-04-02T02:28:55.304Z,212.88
2023-04-02T02:29:55.322Z,218.21
2023-04-02T02:30:55.370Z,217.60
2023-04-02T02:31:55.458Z,216.68
2023-04-02T02:32:55.490Z,218.06
2023-04-02T02:33:55.467Z,222.24
2023-04-02T02:34:55.524Z,224.30
2023-04-02T02:35:55.579Z,223.24
2023-04-02T02:36:55.677Z,225.64
2023-04-02T02:37:55.610Z,230.55
2023-04-02T02:38:55.658Z,235.72
2023-04-02T02:39:55.750Z,240.34
2023-04-02T02:40:55.760Z,243.66
2023-04-02T02:41:55.802Z,247.43
2023-04-02T02:42:55.851Z,250.00
2023-04-02T02:43:55.890Z,250.00
2023-04-02T02:44:55.923Z,250.00
2023-04-02T02:45:56.006Z,249.76
2023-04-02T02:46:56.001Z,250.00
2023-04-02T02:47:56.097Z,249.77
2023-04-02T02:48:56.077Z,248.18
2023-04-02T02:49:56.447Z,249.01
2023-04-02T02:50:56.153Z,249.97
2023-04-02T02:51:56.215Z,250.00
2023-04-02T02:52:56.249Z,249.06
2023-04-02T02:53:56.271Z,245.44
2023-04-02T02:54:56.329Z,237.08
2023-04-02T02:55:56.345Z,225.99
2023-04-02T02:56:56.416Z,220.55
2023-04-02T02:57:56.403Z,216.60
2023-04-02T02:58:56.423Z,212.65
2023-04-02T02:59:56.471Z,210.18
2023-04-02T03:00:56.550Z,209.05
2023-04-02T03:01:56.539Z,201.18
2023-04-02T03:02:56.895Z,193.96
2023-04-02T03:03:56.824Z,192.61
2023-04-02T03:04:56.677Z,195.64
2023-04-02T03:05:56.726Z,198.53
2023-04-02T03:06:56.752Z,202.45
2023-04-02T03:07:56.791Z,203.99
2023-04-02T03:08:56.830Z,206.51
2023-04-02T03:09:56.852Z,211.52
2023-04-02T03:10:56.884Z,215.22
2023-04-02T03:11:56.917Z,217.20
2023-04-02T03:12:56.984Z,219.08
2023-04-02T03:13:57.004Z,222.50
2023-04-02T03:14:57.025Z,224.33
2023-04-02T03:15:57.084Z,227.34
2023-04-02T03:16:57.118Z,232.90
2023-04-02T03:17:57.180Z,238.81
2023-04-02T03:18:57.192Z,242.06
2023-04-02T03:19:57.246Z,245.27
2023-04-02T03:20:57.283Z,247.83
2023-04-02T03:21:57.333Z,248.69
2023-04-02T03:22:57.380Z,249.48
2023-04-02T03:23:57.418Z,249.43
2023-04-02T03:24:57.470Z,249.91
2023-04-02T03:25:57.540Z,247.04
2023-04-02T03:26:57.572Z,246.47
2023-04-02T03:27:57.646Z,245.79
2023-04-02T03:28:57.687Z,246.30
2023-04-02T03:29:57.769Z,248.30
2023-04-02T03:30:57.823Z,249.99
2023-04-02T03:31:57.853Z,248.40
2023-04-02T03:32:57.926Z,246.91
2023-04-02T03:33:57.919Z,247.50
2023-04-02T03:34:57.947Z,246.95
2023-04-02T03:35:58.008Z,246.06
2023-04-02T03:36:58.018Z,244.92
2023-04-02T03:37:58.074Z,242.16
2023-04-02T03:38:58.080Z,240.23
2023-04-02T03:39:58.176Z,239.15
2023-04-02T03:40:58.161Z,234.52
2023-04-02T03:41:58.168Z,232.49
2023-04-02T03:42:58.210Z,231.79
2023-04-02T03:43:58.255Z,229.80
2023-04-02T03:44:58.299Z,228.69
2023-04-02T03:45:58.376Z,225.01
2023-04-02T03:46:58.394Z,222.45
2023-04-02T03:47:58.469Z,222.88
2023-04-02T03:48:58.459Z,230.59
2023-04-02T03:49:58.496Z,235.61
2023-04-02T03:50:58.539Z,239.74
2023-04-02T03:51:58.614Z,241.83
2023-04-02T03:52:58.644Z,245.04
2023-04-02T03:53:58.697Z,247.39
2023-04-02T03:54:58.765Z,250.02
2023-04-02T03:55:58.851Z,250.00
2023-04-02T03:56:58.903Z,250.00
2023-04-02T03:57:58.953Z,250.00
2023-04-02T03:58:58.987Z,249.87
2023-04-02T03:59:59.043Z,250.00
2023-04-02T04:00:59.112Z,249.79
2023-04-02T04:01:59.187Z,248.87
2023-04-02T04:02:59.195Z,247.54
2023-04-02T04:03:59.209Z,245.43
2023-04-02T04:04:59.217Z,245.73
2023-04-02T04:05:59.233Z,246.20
2023-04-02T04:06:59.270Z,245.47
2023-04-02T04:07:59.314Z,246.15
2023-04-02T04:08:59.326Z,243.21
2023-04-02T04:09:59.337Z,242.55
2023-04-02T04:10:59.442Z,242.27
2023-04-02T04:11:59.382Z,242.99
2023-04-02T04:12:59.394Z,243.57
2023-04-02T04:13:59.434Z,242.11
2023-04-02T04:14:59.441Z,244.08
2023-04-02T04:15:59.479Z,243.28
2023-04-02T04:16:59.510Z,242.74
2023-04-02T04:17:59.554Z,242.62
2023-04-02T04:18:59.514Z,242.92
2023-04-02T04:19:59.563Z,244.59
2023-04-02T04:20:59.555Z,247.78
2023-04-02T04:21:59.522Z,250.00
2023-04-02T04:22:59.553Z,249.72
2023-04-02T04:23:59.536Z,249.00
2023-04-02T04:24:59.549Z,244.36
2023-04-02T04:25:59.591Z,241.70
2023-04-02T04:26:59.583Z,234.68
2023-04-02T04:27:59.636Z,228.74
2023-04-02T04:28:59.698Z,224.09
2023-04-02T04:29:59.696Z,221.16
2023-04-02T04:30:59.719Z,218.91
2023-04-02T04:31:59.799Z,216.94
2023-04-02T04:32:59.774Z,214.86
2023-04-02T04:33:59.804Z,214.33
2023-04-02T04:34:59.812Z,212.11
2023-04-02T04:35:59.918Z,212.77
2023-04-02T04:36:59.820Z,209.10
2023-04-02T04:37:59.841Z,204.84
2023-04-02T04:38:59.880Z,205.52
2023-04-02T04:39:59.861Z,207.16
2023-04-02T04:40:59.863Z,207.96
2023-04-02T04:41:59.887Z,210.11
2023-04-02T04:42:59.881Z,225.67
2023-04-02T04:43:59.896Z,238.49
2023-04-02T04:44:59.897Z,249.11
2023-04-02T04:45:59.949Z,252.22
2023-04-02T04:46:59.945Z,250.37
2023-04-02T04:48:00.021Z,249.50
2023-04-02T04:48:59.966Z,246.46
2023-04-02T04:49:59.966Z,243.11
2023-04-02T04:50:59.994Z,237.83
2023-04-02T04:51:59.995Z,234.43
2023-04-02T04:53:00.024Z,231.00
2023-04-02T04:54:00.028Z,227.50
2023-04-02T04:55:00.104Z,225.63
2023-04-02T04:56:09.202Z,224.89
2023-04-02T04:57:01.104Z,224.89
2023-04-02T04:58:00.109Z,224.37
2023-04-02T04:59:00.050Z,221.75
2023-04-02T05:00:00.058Z,221.11
2023-04-02T05:01:00.027Z,220.61
2023-04-02T05:02:00.045Z,223.33
2023-04-02T05:03:00.047Z,229.38
2023-04-02T05:04:00.004Z,231.89
2023-04-02T05:05:00.098Z,230.47
2023-04-02T05:05:59.994Z,229.57
2023-04-02T05:06:59.990Z,228.37
2023-04-02T05:08:00.151Z,227.56
2023-04-02T05:08:59.964Z,226.83
2023-04-02T05:09:59.979Z,226.74
2023-04-02T05:11:00.004Z,227.82
2023-04-02T05:12:00.053Z,227.13
2023-04-02T05:13:00.113Z,227.22
2023-04-02T05:14:00.231Z,228.94
2023-04-02T05:15:00.179Z,229.44
2023-04-02T05:16:01.332Z,226.68
2023-04-02T05:17:00.252Z,219.53
2023-04-02T05:18:00.328Z,217.02
2023-04-02T05:19:00.333Z,215.62
2023-04-02T05:20:00.369Z,211.97
2023-04-02T05:21:00.404Z,208.64
2023-04-02T05:22:00.476Z,205.92
2023-04-02T05:23:00.503Z,204.60
2023-04-02T05:24:00.552Z,201.84
2023-04-02T05:25:00.597Z,201.26
2023-04-02T05:26:00.630Z,196.59
2023-04-02T05:27:00.670Z,191.04
2023-04-02T05:28:00.677Z,181.19
2023-04-02T05:29:00.702Z,174.58
2023-04-02T05:30:00.731Z,169.02
2023-04-02T05:31:00.783Z,165.69
2023-04-02T05:32:00.753Z,163.50
2023-04-02T05:33:00.847Z,166.92
2023-04-02T05:34:00.777Z,170.42
2023-04-02T05:35:00.789Z,175.37
2023-04-02T05:36:00.803Z,176.40
2023-04-02T05:37:00.834Z,177.00
2023-04-02T05:38:00.842Z,179.81
2023-04-02T05:39:00.884Z,182.54
2023-04-02T05:40:00.869Z,183.84
2023-04-02T05:41:00.877Z,184.04
2023-04-02T05:42:00.901Z,181.86
2023-04-02T05:43:00.961Z,182.73
2023-04-02T05:44:00.991Z,183.67
2023-04-02T05:45:01.056Z,186.12
2023-04-02T05:46:01.091Z,184.79
2023-04-02T05:47:01.209Z,187.56
2023-04-02T05:48:01.217Z,190.21
2023-04-02T05:49:01.195Z,194.88
2023-04-02T05:50:01.219Z,198.94
2023-04-02T05:51:01.262Z,202.46
2023-04-02T05:52:01.336Z,203.60
2023-04-02T05:53:01.365Z,202.27
2023-04-02T05:54:01.460Z,199.45
2023-04-02T05:55:01.454Z,191.60
2023-04-02T05:56:01.513Z,186.79
2023-04-02T05:57:01.616Z,186.65
2023-04-02T05:58:29.469Z,186.27
2023-04-02T05:59:02.630Z,185.28
2023-04-02T06:00:01.612Z,181.36
2023-04-02T06:01:01.614Z,179.21
2023-04-02T06:02:01.641Z,179.36
2023-04-02T06:03:01.643Z,179.80
2023-04-02T06:04:01.629Z,180.96
2023-04-02T06:05:01.576Z,183.39
2023-04-02T06:06:01.573Z,185.64
2023-04-02T06:07:01.552Z,187.09
2023-04-02T06:08:01.608Z,189.70
2023-04-02T06:09:01.624Z,199.39
2023-04-02T06:10:01.677Z,210.13
2023-04-02T06:11:01.695Z,216.60
2023-04-02T06:12:01.741Z,219.96
2023-04-02T06:13:01.788Z,222.40
2023-04-02T06:14:01.825Z,223.16
2023-04-02T06:15:01.891Z,222.02
2023-04-02T06:16:01.908Z,220.16
2023-04-02T06:17:02.016Z,217.26
2023-04-02T06:18:02.101Z,215.99
2023-04-02T06:19:02.071Z,215.40
2023-04-02T06:20:02.108Z,213.05
2023-04-02T06:21:02.187Z,210.37
2023-04-02T06:22:02.225Z,206.74
2023-04-02T06:23:02.290Z,201.53
2023-04-02T06:24:02.355Z,197.84
2023-04-02T06:25:02.380Z,197.18
2023-04-02T06:26:02.446Z,195.42
2023-04-02T06:27:02.476Z,193.77
2023-04-02T06:28:02.525Z,187.67
2023-04-02T06:29:02.576Z,177.17
2023-04-02T06:30:02.648Z,171.58
2023-04-02T06:31:02.706Z,169.61
2023-04-02T06:32:02.753Z,167.75
2023-04-02T06:33:02.822Z,168.56
2023-04-02T06:34:02.870Z,170.40
2023-04-02T06:35:02.884Z,172.22
2023-04-02T06:36:02.949Z,176.66
2023-04-02T06:37:02.940Z,179.15
2023-04-02T06:38:02.938Z,175.71
2023-04-02T06:39:02.989Z,175.90
2023-04-02T06:40:03.000Z,175.95
2023-04-02T06:41:03.015Z,175.97
2023-04-02T06:42:03.040Z,177.99
2023-04-02T06:43:03.032Z,180.12
2023-04-02T06:44:03.025Z,182.00
2023-04-02T06:45:03.051Z,178.64
2023-04-02T06:46:03.067Z,172.47
2023-04-02T06:47:03.007Z,169.98
2023-04-02T06:48:03.038Z,169.35
2023-04-02T06:49:03.016Z,169.10
2023-04-02T06:50:03.027Z,170.67
2023-04-02T06:51:03.067Z,172.59
2023-04-02T06:52:03.118Z,173.18
2023-04-02T06:53:03.126Z,174.91
2023-04-02T06:54:03.184Z,177.78
2023-04-02T06:55:03.327Z,180.44
2023-04-02T06:56:03.234Z,185.27
2023-04-02T06:57:03.303Z,187.65
2023-04-02T06:58:03.358Z,191.51
2023-04-02T06:59:03.400Z,192.04
2023-04-02T07:00:03.488Z,191.67
2023-04-02T07:01:03.519Z,190.23
2023-04-02T07:02:03.576Z,187.34
2023-04-02T07:03:03.647Z,185.53
2023-04-02T07:04:03.625Z,188.02
2023-04-02T07:05:03.740Z,190.67
2023-04-02T07:06:03.690Z,194.42
2023-04-02T07:07:03.709Z,195.27
2023-04-02T07:08:03.767Z,182.92
2023-04-02T07:09:03.783Z,177.11
2023-04-02T07:10:03.815Z,174.55
2023-04-02T07:11:03.840Z,175.78
2023-04-02T07:12:03.884Z,173.87
2023-04-02T07:13:03.956Z,171.84
2023-04-02T07:14:03.981Z,171.60
2023-04-02T07:15:04.071Z,168.10
2023-04-02T07:16:04.165Z,165.63
2023-04-02T07:17:04.177Z,156.86
2023-04-02T07:18:04.279Z,152.13
2023-04-02T07:19:04.263Z,155.79
2023-04-02T07:20:04.285Z,162.80
2023-04-02T07:21:04.309Z,167.01
2023-04-02T07:22:04.345Z,169.22
2023-04-02T07:23:04.381Z,161.86
2023-04-02T07:24:04.444Z,155.81
2023-04-02T07:25:04.472Z,153.47
2023-04-02T07:26:04.509Z,147.76
2023-04-02T07:27:04.523Z,142.75
2023-04-02T07:28:04.557Z,143.00
2023-04-02T07:29:04.585Z,141.66
2023-04-02T07:30:04.590Z,133.99
2023-04-02T07:31:04.644Z,130.10
2023-04-02T07:32:04.636Z,130.30
2023-04-02T07:33:04.736Z,130.77
2023-04-02T07:34:04.675Z,133.71
2023-04-02T07:35:04.684Z,139.48
2023-04-02T07:36:04.698Z,147.84
2023-04-02T07:37:04.682Z,151.51
2023-04-02T07:38:04.733Z,147.75
2023-04-02T07:39:04.729Z,145.96
2023-04-02T07:40:04.706Z,142.21
2023-04-02T07:41:04.714Z,142.49
2023-04-02T07:42:04.773Z,145.97
2023-04-02T07:43:04.729Z,138.89
2023-04-02T07:44:04.745Z,130.53
2023-04-02T07:45:06.119Z,130.13
2023-04-02T07:46:04.744Z,131.98
2023-04-02T07:47:04.811Z,130.34
2023-04-02T07:48:04.851Z,128.44
2023-04-02T07:49:04.767Z,127.17
2023-04-02T07:50:04.775Z,127.39
2023-04-02T07:51:04.772Z,127.91
2023-04-02T07:52:04.821Z,128.20
2023-04-02T07:53:04.870Z,126.96
2023-04-02T07:54:04.847Z,130.71
2023-04-02T07:55:04.858Z,137.15
2023-04-02T07:56:04.912Z,137.06
2023-04-02T07:57:05.070Z,126.81
2023-04-02T07:58:05.009Z,117.61
2023-04-02T07:59:05.076Z,107.88
2023-04-02T08:00:05.144Z,102.07
2023-04-02T08:01:05.206Z,100.22
2023-04-02T08:02:05.263Z,96.81
2023-04-02T08:03:05.402Z,96.14
2023-04-02T08:04:05.370Z,82.44
2023-04-02T08:05:05.386Z,74.84
2023-04-02T08:06:05.462Z,71.06
2023-04-02T08:07:05.498Z,70.50
2023-04-02T08:08:05.532Z,68.64
2023-04-02T08:09:05.567Z,68.63
2023-04-02T08:10:05.598Z,70.39
2023-04-02T08:11:05.638Z,63.10
2023-04-02T08:12:05.664Z,55.25
2023-04-02T08:13:05.666Z,51.21
2023-04-02T08:14:05.680Z,44.07
2023-04-02T08:15:05.710Z,41.29
2023-04-02T08:16:05.723Z,34.63
2023-04-02T08:17:05.743Z,33.58
2023-04-02T08:18:05.783Z,35.38
2023-04-02T08:19:05.765Z,36.63
2023-04-02T08:20:05.800Z,35.64
2023-04-02T08:21:05.797Z,36.18
2023-04-02T08:22:05.793Z,34.55
2023-04-02T08:23:05.819Z,31.77
2023-04-02T08:24:05.803Z,32.49
2023-04-02T08:25:05.795Z,33.62
2023-04-02T08:26:05.833Z,26.42
2023-04-02T08:27:05.823Z,25.12
2023-04-02T08:28:05.933Z,25.44
2023-04-02T08:29:05.867Z,27.42
2023-04-02T08:30:05.887Z,31.50
2023-04-02T08:31:05.933Z,31.82
2023-04-02T08:32:05.943Z,30.78
2023-04-02T08:33:06.010Z,30.33
2023-04-02T08:34:06.019Z,28.44
2023-04-02T08:35:06.065Z,31.83
2023-04-02T08:36:06.172Z,36.19
2023-04-02T08:37:06.203Z,30.26
2023-04-02T08:38:06.253Z,14.20
2023-04-02T08:39:06.298Z,7.98
2023-04-02T08:40:06.360Z,14.44
2023-04-02T08:41:06.434Z,24.74
2023-04-02T08:42:06.466Z,26.13
2023-04-02T08:43:06.541Z,31.91
2023-04-02T08:44:06.604Z,34.91
2023-04-02T08:45:21.092Z,36.65
2023-04-02T08:46:07.653Z,34.83
2023-04-02T08:47:06.615Z,32.78
2023-04-02T08:48:06.675Z,26.90
2023-04-02T08:49:06.736Z,22.22
2023-04-02T08:50:06.606Z,23.23
2023-04-02T08:51:06.597Z,29.69
2023-04-02T08:52:06.606Z,26.67
2023-04-02T08:53:06.583Z,26.76
2023-04-02T08:54:06.583Z,25.00
2023-04-02T08:55:06.574Z,24.87
2023-04-02T08:56:06.553Z,25.72
2023-04-02T08:57:06.612Z,24.47
2023-04-02T08:58:06.560Z,24.93
2023-04-02T08:59:06.560Z,21.53
2023-04-02T09:00:06.547Z,17.18
2023-04-02T09:01:06.557Z,20.47
2023-04-02T09:02:06.582Z,23.87
2023-04-02T09:03:06.674Z,25.24
2023-04-02T09:04:06.624Z,25.39
2023-04-02T09:05:06.765Z,26.17
2023-04-02T09:06:06.635Z,24.99
2023-04-02T09:07:06.646Z,25.10
2023-04-02T09:08:06.638Z,26.67
2023-04-02T09:09:06.673Z,27.04
2023-04-02T09:10:06.660Z,27.82
2023-04-02T09:11:06.663Z,25.04
2023-04-02T09:12:06.648Z,25.42
2023-04-02T09:13:06.650Z,24.75
2023-04-02T09:14:06.663Z,26.74
2023-04-02T09:15:06.687Z,22.44
2023-04-02T09:16:06.738Z,24.71
2023-04-02T09:17:06.775Z,26.99
2023-04-02T09:18:06.883Z,30.76
2023-04-02T09:19:06.923Z,32.70
2023-04-02T09:20:06.953Z,31.34
2023-04-02T09:21:07.010Z,28.55
2023-04-02T09:22:07.082Z,25.24
2023-04-02T09:23:07.117Z,25.47
2023-04-02T09:24:07.192Z,28.72
2023-04-02T09:25:07.246Z,28.95
2023-04-02T09:26:07.261Z,22.90
2023-04-02T09:27:07.312Z,22.43
2023-04-02T09:28:07.371Z,23.42
2023-04-02T09:29:07.425Z,24.39
2023-04-02T09:30:07.449Z,28.49
2023-04-02T09:31:07.498Z,28.66
2023-04-02T09:32:07.484Z,29.77
2023-04-02T09:33:07.793Z,30.02
2023-04-02T09:34:07.505Z,29.90
2023-04-02T09:35:14.986Z,27.97
2023-04-02T09:36:08.541Z,17.55
2023-04-02T09:37:07.502Z,12.90
2023-04-02T09:38:07.516Z,13.17
2023-04-02T09:39:07.478Z,15.66
2023-04-02T09:40:07.482Z,15.34
2023-04-02T09:41:07.484Z,20.28
2023-04-02T09:42:07.485Z,24.91
2023-04-02T09:43:07.466Z,25.76
2023-04-02T09:44:07.444Z,24.77
2023-04-02T09:45:07.460Z,26.47
2023-04-02T09:46:07.453Z,27.54
2023-04-02T09:47:07.513Z,28.94
2023-04-02T09:48:07.503Z,31.73
2023-04-02T09:49:07.414Z,33.59
2023-04-02T09:50:07.433Z,35.00
2023-04-02T09:51:07.421Z,32.89
2023-04-02T09:52:07.396Z,30.22
2023-04-02T09:53:07.406Z,33.63
2023-04-02T09:54:07.399Z,34.50
2023-04-02T09:55:07.373Z,36.41
2023-04-02T09:56:07.358Z,38.52
2023-04-02T09:57:07.406Z,42.78
2023-04-02T09:58:07.358Z,44.63
2023-04-02T09:59:07.400Z,40.35
2023-04-02T10:00:10.252Z,37.06
2023-04-02T10:01:07.406Z,37.08
2023-04-02T10:02:07.369Z,36.43
2023-04-02T10:03:07.449Z,37.19
2023-04-02T10:04:07.404Z,37.88
2023-04-02T10:05:07.370Z,38.75
2023-04-02T10:06:07.347Z,39.40
2023-04-02T10:07:07.355Z,42.00
2023-04-02T10:08:07.338Z,43.27
2023-04-02T10:09:07.336Z,47.44
2023-04-02T10:10:07.315Z,49.91
2023-04-02T10:11:07.313Z,49.33
2023-04-02T10:12:07.302Z,48.78
2023-04-02T10:13:07.297Z,47.30
2023-04-02T10:14:07.282Z,42.45
2023-04-02T10:15:07.271Z,36.91
2023-04-02T10:16:07.314Z,34.43
2023-04-02T10:17:07.275Z,35.73
2023-04-02T10:18:07.288Z,36.79
2023-04-02T10:19:07.252Z,37.04
2023-04-02T10:20:07.245Z,35.24
2023-04-02T10:21:07.250Z,30.06
2023-04-02T10:22:07.240Z,30.26
2023-04-02T10:23:07.213Z,28.51
2023-04-02T10:24:07.215Z,26.47
2023-04-02T10:25:07.206Z,25.31
2023-04-02T10:26:07.203Z,26.94
2023-04-02T10:27:07.230Z,27.46
2023-04-02T10:28:07.235Z,29.70
2023-04-02T10:29:07.319Z,29.78
2023-04-02T10:30:07.265Z,27.48
2023-04-02T10:31:07.376Z,27.09
2023-04-02T10:32:07.315Z,25.19
2023-04-02T10:33:07.388Z,25.71
2023-04-02T10:34:07.351Z,24.90
2023-04-02T10:35:07.388Z,24.75
2023-04-02T10:36:07.431Z,25.98
2023-04-02T10:37:07.398Z,33.13
2023-04-02T10:38:07.392Z,32.57
2023-04-02T10:39:07.411Z,32.44
2023-04-02T10:40:07.446Z,24.05
2023-04-02T10:41:07.433Z,24.28
2023-04-02T10:42:07.455Z,24.98
2023-04-02T10:43:07.506Z,26.68
2023-04-02T10:44:18.807Z,24.97
2023-04-02T10:45:08.497Z,22.47
2023-04-02T10:46:07.503Z,23.77
2023-04-02T10:47:07.484Z,25.30
2023-04-02T10:48:07.495Z,25.00
2023-04-02T10:49:07.597Z,27.41
2023-04-02T10:50:07.451Z,29.66
2023-04-02T10:51:07.444Z,30.98
2023-04-02T10:52:07.461Z,27.12
2023-04-02T10:53:07.447Z,29.20
2023-04-02T10:54:07.448Z,30.87
2023-04-02T10:55:07.426Z,34.03
2023-04-02T10:56:07.431Z,37.27
2023-04-02T10:57:07.434Z,39.63
2023-04-02T10:58:07.404Z,43.81
2023-04-02T10:59:07.404Z,49.90
2023-04-02T11:00:07.375Z,52.56
2023-04-02T11:01:07.388Z,51.48
2023-04-02T11:02:07.368Z,51.24
2023-04-02T11:03:07.423Z,51.49
2023-04-02T11:04:07.368Z,52.57
2023-04-02T11:05:07.359Z,52.27
2023-04-02T11:06:07.375Z,54.40
2023-04-02T11:07:14.342Z,53.37
2023-04-02T11:08:08.361Z,53.45
2023-04-02T11:09:07.391Z,53.83
2023-04-02T11:10:07.357Z,54.89
2023-04-02T11:11:07.311Z,57.72
2023-04-02T11:12:07.302Z,62.17
2023-04-02T11:13:07.320Z,59.94
2023-04-02T11:14:07.296Z,55.20
2023-04-02T11:15:07.328Z,55.08
2023-04-02T11:16:07.298Z,52.50
2023-04-02T11:17:07.284Z,49.94
2023-04-02T11:18:07.289Z,50.21
2023-04-02T11:19:07.264Z,53.09
2023-04-02T11:20:07.279Z,55.44
2023-04-02T11:21:07.231Z,55.44
2023-04-02T11:22:07.226Z,51.90
2023-04-02T11:23:07.240Z,52.52
2023-04-02T11:24:07.215Z,52.21
2023-04-02T11:25:07.210Z,53.35
2023-04-02T11:26:07.200Z,56.06
2023-04-02T11:27:07.237Z,59.09
2023-04-02T11:28:07.206Z,58.96
2023-04-02T11:29:07.212Z,62.33
2023-04-02T11:30:07.219Z,62.52
2023-04-02T11:31:07.276Z,58.09
2023-04-02T11:32:07.257Z,57.42
2023-04-02T11:33:07.277Z,54.73
2023-04-02T11:34:07.292Z,51.78
2023-04-02T11:35:07.899Z,50.07
2023-04-02T11:36:07.339Z,51.18
2023-04-02T11:37:07.350Z,53.19
2023-04-02T11:38:07.336Z,49.57
2023-04-02T11:39:16.562Z,44.61
2023-04-02T11:40:08.346Z,44.65
2023-04-02T11:41:07.349Z,39.77
2023-04-02T11:42:07.330Z,34.65
2023-04-02T11:43:07.320Z,34.41
2023-04-02T11:44:07.321Z,26.63
2023-04-02T11:45:07.310Z,29.22
2023-04-02T11:46:07.310Z,36.21
2023-04-02T11:47:07.292Z,40.56
2023-04-02T11:48:07.352Z,35.68
2023-04-02T11:49:07.341Z,29.94
2023-04-02T11:50:07.298Z,29.04
2023-04-02T11:51:07.289Z,36.77
2023-04-02T11:52:12.276Z,39.36
2023-04-02T11:53:08.260Z,39.43
2023-04-02T11:54:07.264Z,40.14
2023-04-02T11:55:07.263Z,42.25
2023-04-02T11:56:07.232Z,45.64
2023-04-02T11:57:07.229Z,43.68
2023-04-02T11:58:07.238Z,40.06
2023-04-02T11:59:07.241Z,36.91
2023-04-02T12:00:07.209Z,39.74
2023-04-02T12:01:07.193Z,43.12
2023-04-02T12:02:07.234Z,46.34
2023-04-02T12:03:07.237Z,49.86
2023-04-02T12:04:07.173Z,52.41
2023-04-02T12:05:07.243Z,50.10
2023-04-02T12:06:07.173Z,44.67
2023-04-02T12:07:07.191Z,44.57
2023-04-02T12:08:07.165Z,45.23
2023-04-02T12:09:07.148Z,47.19
2023-04-02T12:10:07.152Z,49.20
2023-04-02T12:11:07.152Z,51.06
2023-04-02T12:12:07.137Z,48.90
2023-04-02T12:13:07.133Z,43.95
2023-04-02T12:14:07.196Z,43.35
2023-04-02T12:15:07.205Z,40.40
2023-04-02T12:16:07.241Z,41.85
2023-04-02T12:17:09.825Z,42.44
2023-04-02T12:18:07.301Z,42.65
2023-04-02T12:19:07.317Z,37.64
2023-04-02T12:20:07.246Z,41.15
2023-04-02T12:21:07.215Z,47.96
2023-04-02T12:22:07.226Z,41.43
2023-04-02T12:23:07.198Z,35.80
2023-04-02T12:24:07.199Z,37.29
2023-04-02T12:25:07.208Z,37.60
2023-04-02T12:26:07.197Z,35.58
2023-04-02T12:27:07.186Z,29.44
2023-04-02T12:28:07.184Z,33.36
2023-04-02T12:29:07.174Z,35.83
2023-04-02T12:30:07.150Z,37.63
2023-04-02T12:31:07.199Z,34.52
2023-04-02T12:32:07.149Z,34.35
2023-04-02T12:33:07.194Z,34.99
2023-04-02T12:34:07.135Z,34.95
2023-04-02T12:35:07.129Z,37.44
2023-04-02T12:36:07.144Z,36.02
2023-04-02T12:37:07.107Z,34.91
2023-04-02T12:38:07.117Z,27.28